createdAt,value
2017-06-03T00:00:26.182Z,9.37
2017-06-03T00:02:52.628Z,9.07
2017-06-03T00:05:19.133Z,9.20
2017-06-03T00:07:46.295Z,8.88
2017-06-03T00:10:13.459Z,8.60
2017-06-03T00:12:39.880Z,8.75
2017-06-03T00:15:06.977Z,8.90
2017-06-03T00:17:33.466Z,9.00
2017-06-03T00:19:59.902Z,9.30
2017-06-03T00:22:27.533Z,8.98
2017-06-03T00:24:54.060Z,9.60
2017-06-03T00:27:20.516Z,8.43
2017-06-03T00:29:46.979Z,9.32
2017-06-03T00:32:13.532Z,8.40
2017-06-03T00:34:40.271Z,8.60
2017-06-03T00:37:06.812Z,8.50
2017-06-03T00:39:33.272Z,8.40
2017-06-03T00:42:14.594Z,9.10
2017-06-03T00:44:41.024Z,8.98
2017-06-03T00:47:07.918Z,8.93
2017-06-03T00:49:34.335Z,8.32
2017-06-03T00:52:00.765Z,7.90
2017-06-03T00:54:27.287Z,8.10
2017-06-03T00:56:54.149Z,8.10
2017-06-03T00:59:20.583Z,7.72
2017-06-03T01:01:46.983Z,7.53
2017-06-03T01:04:13.842Z,7.62
2017-06-03T01:06:40.589Z,7.80
2017-06-03T01:09:07.576Z,7.30
2017-06-03T01:11:33.995Z,6.97
2017-06-03T01:14:01.152Z,8.05
2017-06-03T01:16:28.232Z,7.10
2017-06-03T01:18:55.431Z,8.10
2017-06-03T01:21:21.830Z,7.12
2017-06-03T01:23:48.248Z,6.60
2017-06-03T01:26:14.676Z,7.20
2017-06-03T01:28:41.841Z,6.93
2017-06-03T01:31:09.044Z,7.60
2017-06-03T01:33:35.571Z,7.40
2017-06-03T01:36:02.789Z,7.53
2017-06-03T01:38:29.809Z,8.07
2017-06-03T01:40:56.279Z,7.57
2017-06-03T01:43:23.482Z,7.90
2017-06-03T01:45:49.950Z,7.40
2017-06-03T01:48:16.435Z,7.60
2017-06-03T01:50:43.106Z,7.80
2017-06-03T01:53:09.571Z,7.68
2017-06-03T01:55:36.011Z,7.22
2017-06-03T01:58:02.485Z,8.30
2017-06-03T02:00:28.943Z,8.20
2017-06-03T02:02:56.127Z,8.05
2017-06-03T02:05:22.548Z,8.52
2017-06-03T02:07:48.976Z,7.97
2017-06-03T02:10:15.384Z,9.00
2017-06-03T02:12:42.564Z,8.85
2017-06-03T02:15:09.781Z,8.75
2017-06-03T02:17:36.217Z,9.00
2017-06-03T02:20:02.694Z,8.40
2017-06-03T02:22:29.218Z,9.13
2017-06-03T02:24:55.658Z,9.20
2017-06-03T02:27:22.833Z,9.75
2017-06-03T02:29:51.032Z,9.13
2017-06-03T02:32:18.211Z,10.35
2017-06-03T02:34:44.646Z,10.45
2017-06-03T02:37:11.820Z,9.95
2017-06-03T02:39:38.995Z,9.90
2017-06-03T02:42:06.155Z,10.25
2017-06-03T02:44:32.953Z,10.50
2017-06-03T02:46:59.380Z,9.82
2017-06-03T02:49:25.860Z,10.63
2017-06-03T02:51:52.300Z,9.70
2017-06-03T02:54:19.480Z,9.35
2017-06-03T02:56:47.157Z,10.25
2017-06-03T02:59:14.325Z,9.60
2017-06-03T03:01:41.714Z,9.35
2017-06-03T03:04:08.890Z,9.70
2017-06-03T03:06:35.451Z,9.30
2017-06-03T03:09:02.168Z,9.55
2017-06-03T03:11:28.668Z,8.93
2017-06-03T03:13:55.942Z,8.90
2017-06-03T03:16:22.430Z,8.80
2017-06-03T03:18:48.848Z,8.32
2017-06-03T03:21:16.379Z,8.20
2017-06-03T03:23:43.587Z,8.15
2017-06-03T03:26:10.167Z,8.00
2017-06-03T03:28:37.569Z,7.55
2017-06-03T03:31:04.044Z,7.57
2017-06-03T03:33:30.500Z,7.60
2017-06-03T03:35:56.940Z,7.10
2017-06-03T03:38:23.362Z,7.40
2017-06-03T03:40:50.628Z,7.32
2017-06-03T03:43:17.807Z,7.47
2017-06-03T03:45:45.321Z,6.97
2017-06-03T03:48:12.307Z,7.20
2017-06-03T03:50:38.729Z,6.70
2017-06-03T03:53:05.172Z,6.50
2017-06-03T03:55:31.622Z,6.50
2017-06-03T03:57:58.778Z,6.43
2017-06-03T04:00:25.222Z,6.60
2017-06-03T04:02:51.659Z,6.80
2017-06-03T04:05:18.121Z,6.80
2017-06-03T04:07:44.861Z,6.65
2017-06-03T04:10:11.637Z,7.18
2017-06-03T04:12:38.122Z,6.85
2017-06-03T04:15:04.548Z,6.80
2017-06-03T04:17:30.980Z,6.32
2017-06-03T04:19:57.523Z,6.60
2017-06-03T04:22:23.956Z,6.50
2017-06-03T04:24:51.251Z,7.10
2017-06-03T04:27:17.726Z,7.18
2017-06-03T04:29:44.180Z,7.10
2017-06-03T04:32:10.617Z,7.50
2017-06-03T04:34:38.030Z,7.72
2017-06-03T04:37:04.664Z,6.85
2017-06-03T04:39:31.098Z,7.30
2017-06-03T04:41:58.386Z,6.67
2017-06-03T04:44:24.820Z,6.60
2017-06-03T04:46:52.095Z,6.40
2017-06-03T04:49:19.267Z,5.70
2017-06-03T04:51:45.686Z,5.50
2017-06-03T04:54:12.407Z,5.20
2017-06-03T04:56:38.843Z,5.55
2017-06-03T04:59:06.135Z,5.22
2017-06-03T05:01:32.572Z,4.90
2017-06-03T05:03:59.460Z,5.30
2017-06-03T05:06:26.093Z,4.87
2017-06-03T05:08:52.575Z,5.28
2017-06-03T05:11:19.377Z,4.40
2017-06-03T05:13:46.203Z,4.10
2017-06-03T05:16:12.762Z,4.00
2017-06-03T05:18:39.205Z,4.07
2017-06-03T05:21:05.675Z,3.80
2017-06-03T05:23:32.368Z,4.00
2017-06-03T05:25:58.796Z,3.60
2017-06-03T05:28:25.580Z,3.70
2017-06-03T05:30:52.136Z,3.85
2017-06-03T05:33:18.573Z,4.40
2017-06-03T05:35:45.013Z,3.70
2017-06-03T05:38:12.301Z,3.40
2017-06-03T05:40:38.855Z,3.60
2017-06-03T05:43:05.314Z,3.90
2017-06-03T05:45:31.974Z,3.80
2017-06-03T05:47:58.408Z,3.33
2017-06-03T05:50:24.870Z,3.20
2017-06-03T05:52:51.324Z,3.42
2017-06-03T05:55:18.483Z,3.90
2017-06-03T05:57:44.971Z,3.40
2017-06-03T06:00:11.527Z,3.40
2017-06-03T06:02:38.331Z,3.70
2017-06-03T06:05:04.779Z,3.30
2017-06-03T06:07:31.412Z,3.10
2017-06-03T06:09:57.844Z,3.30
2017-06-03T06:12:25.240Z,3.28
2017-06-03T06:14:51.965Z,3.00
2017-06-03T06:17:18.454Z,3.10
2017-06-03T06:19:45.631Z,3.17
2017-06-03T06:22:12.079Z,3.00
2017-06-03T06:24:39.310Z,3.00
2017-06-03T06:27:05.742Z,3.90
2017-06-03T06:29:32.178Z,3.20
2017-06-03T06:31:58.669Z,2.90
2017-06-03T06:34:25.147Z,2.90
2017-06-03T06:36:51.666Z,2.87
2017-06-03T06:39:18.089Z,3.00
2017-06-03T06:41:45.373Z,3.33
2017-06-03T06:44:12.415Z,3.00
2017-06-03T06:46:39.007Z,3.00
2017-06-03T06:49:05.456Z,3.40
2017-06-03T06:51:32.116Z,2.95
2017-06-03T06:53:58.605Z,2.90
2017-06-03T06:56:25.075Z,3.35
2017-06-03T06:58:51.508Z,3.30
2017-06-03T07:01:17.953Z,3.20
2017-06-03T07:03:44.429Z,3.20
2017-06-03T07:06:10.871Z,3.37
2017-06-03T07:08:37.306Z,3.37
2017-06-03T07:11:04.586Z,3.20
2017-06-03T07:13:31.042Z,3.45
2017-06-03T07:15:57.600Z,3.30
2017-06-03T07:18:24.020Z,3.30
2017-06-03T07:20:50.571Z,3.10
2017-06-03T07:23:17.071Z,3.10
2017-06-03T07:25:43.629Z,3.30
2017-06-03T07:28:10.189Z,3.20
2017-06-03T07:30:36.747Z,3.60
2017-06-03T07:33:03.306Z,3.80
2017-06-03T07:35:29.786Z,3.50
2017-06-03T07:37:56.506Z,4.10
2017-06-03T07:40:23.799Z,3.30
2017-06-03T07:42:50.217Z,3.10
2017-06-03T07:45:16.698Z,3.25
2017-06-03T07:47:43.881Z,3.35
2017-06-03T07:50:10.441Z,3.10
2017-06-03T07:52:36.999Z,3.20
2017-06-03T07:55:03.576Z,3.30
2017-06-03T07:57:30.020Z,3.40
2017-06-03T07:59:56.448Z,3.20
2017-06-03T08:02:23.661Z,3.20
2017-06-03T08:04:50.201Z,3.30
2017-06-03T08:07:16.741Z,3.10
2017-06-03T08:09:43.950Z,3.50
2017-06-03T08:12:10.591Z,3.20
2017-06-03T08:14:37.007Z,3.20
2017-06-03T08:17:03.480Z,3.03
2017-06-03T08:19:29.967Z,3.30
2017-06-03T08:21:56.742Z,3.28
2017-06-03T08:24:23.674Z,3.20
2017-06-03T08:26:50.842Z,3.33
2017-06-03T08:29:17.402Z,3.40
2017-06-03T08:31:44.588Z,3.80
2017-06-03T08:34:12.459Z,3.50
2017-06-03T08:36:39.268Z,3.60
2017-06-03T08:39:05.740Z,3.47
2017-06-03T08:41:32.188Z,3.70
2017-06-03T08:43:58.924Z,3.70
2017-06-03T08:46:25.345Z,3.40
2017-06-03T08:48:51.837Z,3.90
2017-06-03T08:51:18.609Z,3.83
2017-06-03T08:53:45.117Z,3.70
2017-06-03T08:56:11.548Z,3.70
2017-06-03T08:58:38.278Z,3.70
2017-06-03T09:01:04.754Z,3.80
2017-06-03T09:03:31.231Z,3.65
2017-06-03T09:05:58.062Z,3.60
2017-06-03T09:08:24.489Z,3.70
2017-06-03T09:10:51.723Z,4.10
2017-06-03T09:13:18.195Z,4.18
2017-06-03T09:15:44.995Z,4.07
2017-06-03T09:18:12.004Z,3.78
2017-06-03T09:20:39.100Z,3.90
2017-06-03T09:23:05.536Z,4.00
2017-06-03T09:25:32.460Z,3.70
2017-06-03T09:27:58.909Z,4.43
2017-06-03T09:30:26.093Z,4.18
2017-06-03T09:32:52.542Z,4.00
2017-06-03T09:35:19.653Z,4.10
2017-06-03T09:37:46.173Z,4.18
2017-06-03T09:40:12.602Z,4.20
2017-06-03T09:42:39.798Z,4.37
2017-06-03T09:45:06.357Z,3.90
2017-06-03T09:47:32.812Z,4.10
2017-06-03T09:49:59.284Z,4.00
2017-06-03T09:52:25.833Z,4.10
2017-06-03T09:54:52.314Z,4.00
2017-06-03T09:57:18.747Z,4.60
2017-06-03T09:59:45.166Z,4.50
2017-06-03T10:02:11.652Z,4.20
2017-06-03T10:04:38.140Z,4.05
2017-06-03T10:07:04.603Z,4.30
2017-06-03T10:09:31.302Z,4.10
2017-06-03T10:11:57.722Z,4.20
2017-06-03T10:14:24.189Z,4.20
2017-06-03T10:16:50.695Z,4.28
2017-06-03T10:19:17.189Z,4.65
2017-06-03T10:21:43.713Z,4.30
2017-06-03T10:24:10.165Z,4.50
2017-06-03T10:26:36.604Z,4.40
2017-06-03T10:29:03.791Z,4.53
2017-06-03T10:31:30.293Z,4.28
2017-06-03T10:33:57.007Z,4.12
2017-06-03T10:36:24.163Z,4.72
2017-06-03T10:38:50.606Z,5.00
2017-06-03T10:41:17.053Z,4.62
2017-06-03T10:43:43.554Z,4.70
2017-06-03T10:46:10.111Z,5.00
2017-06-03T10:48:36.720Z,4.70
2017-06-03T10:51:03.170Z,4.75
2017-06-03T10:53:29.594Z,4.87
2017-06-03T10:55:56.295Z,4.90
2017-06-03T10:58:22.727Z,4.90
2017-06-03T11:00:49.311Z,4.60
2017-06-03T11:03:16.455Z,5.07
2017-06-03T11:05:42.872Z,5.00
2017-06-03T11:08:10.023Z,5.10
2017-06-03T11:10:36.438Z,4.68
2017-06-03T11:13:02.869Z,7.20
2017-06-03T11:15:29.309Z,5.37
2017-06-03T11:17:56.471Z,5.18
2017-06-03T11:20:23.688Z,4.80
2017-06-03T11:22:50.089Z,4.93
2017-06-03T11:25:16.528Z,4.53
2017-06-03T11:27:42.953Z,4.93
2017-06-03T11:30:09.393Z,5.30
2017-06-03T11:32:35.948Z,4.90
2017-06-03T11:35:02.365Z,5.20
2017-06-03T11:37:28.791Z,5.00
2017-06-03T11:39:55.225Z,5.10
2017-06-03T11:42:21.657Z,4.97
2017-06-03T11:44:48.833Z,5.50
2017-06-03T11:47:16.350Z,5.10
2017-06-03T11:49:43.336Z,4.97
2017-06-03T11:52:09.966Z,5.00
2017-06-03T11:54:36.724Z,5.07
2017-06-03T11:57:03.163Z,18.35
2017-06-03T11:59:30.444Z,5.20
2017-06-03T12:01:57.470Z,5.30
2017-06-03T12:04:24.565Z,5.57
2017-06-03T12:06:52.166Z,5.60
2017-06-03T12:09:18.616Z,5.68
2017-06-03T12:11:45.778Z,5.50
2017-06-03T12:14:12.964Z,6.12
2017-06-03T12:16:39.398Z,7.95
2017-06-03T12:19:06.733Z,5.80
2017-06-03T12:21:33.141Z,6.10
2017-06-03T12:24:00.323Z,5.70
2017-06-03T12:26:26.786Z,6.47
2017-06-03T12:28:53.280Z,5.10
2017-06-03T12:31:19.743Z,5.95
2017-06-03T12:33:46.162Z,5.55
2017-06-03T12:36:13.078Z,5.65
2017-06-03T12:38:39.524Z,5.60
2017-06-03T12:41:06.486Z,5.50
2017-06-03T12:43:32.995Z,5.50
2017-06-03T12:45:59.433Z,5.30
2017-06-03T12:48:26.734Z,5.50
2017-06-03T12:50:53.193Z,5.32
2017-06-03T12:53:19.660Z,5.40
2017-06-03T12:55:46.197Z,5.32
2017-06-03T12:58:12.656Z,5.60
2017-06-03T13:00:39.095Z,5.80
2017-06-03T13:03:06.311Z,5.37
2017-06-03T13:05:32.757Z,5.65
2017-06-03T13:07:59.191Z,5.60
2017-06-03T13:10:26.378Z,5.70
2017-06-03T13:12:52.821Z,5.60
2017-06-03T13:15:19.266Z,5.90
2017-06-03T13:17:46.478Z,5.77
2017-06-03T13:20:13.009Z,5.55
2017-06-03T13:22:39.872Z,5.70
2017-06-03T13:25:06.433Z,5.90
2017-06-03T13:27:32.887Z,5.50
2017-06-03T13:29:59.899Z,5.82
2017-06-03T13:32:26.962Z,6.20
2017-06-03T13:34:53.484Z,6.07
2017-06-03T13:37:19.930Z,5.85
2017-06-03T13:39:47.214Z,5.78
2017-06-03T13:42:13.882Z,6.28
2017-06-03T13:44:40.365Z,6.43
2017-06-03T13:47:07.257Z,5.70
2017-06-03T13:49:33.692Z,6.03
2017-06-03T13:52:00.517Z,6.90
2017-06-03T13:54:27.076Z,5.93
2017-06-03T13:56:53.547Z,5.70
2017-06-03T13:59:19.988Z,6.07
2017-06-03T14:01:46.546Z,6.50
2017-06-03T14:04:13.073Z,6.22
2017-06-03T14:06:39.513Z,6.40
2017-06-03T14:09:05.943Z,6.43
2017-06-03T14:11:32.349Z,7.05
2017-06-03T14:13:59.645Z,7.20
2017-06-03T14:16:26.074Z,7.30
2017-06-03T14:18:53.297Z,7.10
2017-06-03T14:21:19.729Z,6.72
2017-06-03T14:23:46.286Z,7.00
2017-06-03T14:26:12.710Z,7.40
2017-06-03T14:28:39.166Z,7.85
2017-06-03T14:31:05.604Z,9.15
2017-06-03T14:33:32.116Z,9.70
2017-06-03T14:35:58.567Z,9.43
2017-06-03T14:38:25.009Z,8.30
2017-06-03T14:40:52.190Z,8.90
2017-06-03T14:43:19.397Z,7.33
2017-06-03T14:45:45.931Z,6.97
2017-06-03T14:48:12.977Z,6.07
2017-06-03T14:50:40.188Z,6.28
2017-06-03T14:53:06.609Z,6.40
2017-06-03T14:55:33.801Z,6.17
2017-06-03T14:58:00.722Z,6.70
2017-06-03T15:00:27.323Z,6.00
2017-06-03T15:02:53.778Z,6.37
2017-06-03T15:05:20.234Z,5.90
2017-06-03T15:07:46.694Z,10.32
2017-06-03T15:10:13.254Z,6.17
2017-06-03T15:12:39.808Z,6.90
2017-06-03T15:15:06.267Z,6.30
2017-06-03T15:17:32.767Z,6.90
2017-06-03T15:19:59.255Z,6.78
2017-06-03T15:22:25.680Z,7.28
2017-06-03T15:24:52.261Z,7.40
2017-06-03T15:27:18.711Z,7.80
2017-06-03T15:29:45.206Z,7.70
2017-06-03T15:32:11.662Z,7.50
2017-06-03T15:34:38.104Z,8.55
2017-06-03T15:37:05.804Z,9.00
2017-06-03T15:39:32.236Z,9.10
2017-06-03T15:41:59.455Z,10.82
2017-06-03T15:44:25.917Z,11.60
2017-06-03T15:46:52.448Z,10.40
2017-06-03T15:49:18.970Z,10.75
2017-06-03T15:51:45.395Z,9.35
2017-06-03T15:54:12.996Z,10.52
2017-06-03T15:56:39.479Z,9.60
2017-06-03T15:59:07.954Z,10.68
2017-06-03T16:01:36.006Z,9.30
2017-06-03T16:04:02.917Z,8.38
2017-06-03T16:06:41.374Z,9.20
2017-06-03T16:09:08.715Z,8.80
2017-06-03T16:11:35.162Z,9.30
2017-06-03T16:14:01.624Z,9.68
2017-06-03T16:16:28.081Z,9.82
2017-06-03T16:18:54.682Z,10.05
2017-06-03T16:21:21.151Z,10.40
2017-06-03T16:23:48.019Z,16.10
2017-06-03T16:26:14.519Z,29.58
2017-06-03T16:28:41.125Z,82.03
2017-06-03T16:31:07.686Z,12.10
2017-06-03T16:33:34.342Z,12.13
2017-06-03T16:36:00.901Z,14.35
2017-06-03T16:38:27.320Z,10.70
2017-06-03T16:40:53.913Z,10.80
2017-06-03T16:43:20.690Z,15.13
2017-06-03T16:45:47.725Z,13.03
2017-06-03T16:48:16.046Z,14.90
2017-06-03T16:50:42.910Z,16.67
2017-06-03T16:53:09.671Z,12.63
2017-06-03T16:55:37.060Z,11.43
2017-06-03T16:58:03.718Z,10.70
2017-06-03T17:00:30.374Z,11.50
2017-06-03T17:02:57.746Z,10.50
2017-06-03T17:05:25.125Z,10.70
2017-06-03T17:07:51.771Z,11.25
2017-06-03T17:11:59.289Z,14.00
2017-06-03T17:14:25.751Z,10.70
2017-06-03T17:16:52.504Z,9.57
2017-06-03T17:19:19.104Z,9.50
2017-06-03T17:21:45.596Z,10.52
2017-06-03T17:24:13.748Z,10.80
2017-06-03T17:26:40.434Z,10.60
2017-06-03T17:29:07.035Z,11.02
2017-06-03T17:31:33.505Z,11.63
2017-06-03T17:34:00.054Z,12.35
2017-06-03T17:36:27.020Z,12.30
2017-06-03T17:38:53.576Z,11.43
2017-06-03T17:41:20.028Z,11.98
2017-06-03T17:43:47.896Z,14.07
2017-06-03T17:46:14.478Z,13.90
2017-06-03T17:48:41.138Z,11.65
2017-06-03T17:51:07.609Z,11.80
2017-06-03T17:53:34.229Z,13.32
2017-06-03T17:56:00.658Z,13.70
2017-06-03T17:58:27.270Z,11.85
2017-06-03T18:00:53.820Z,11.50
2017-06-03T18:03:20.367Z,12.63
2017-06-03T18:05:48.245Z,13.05
2017-06-03T18:08:14.710Z,10.95
2017-06-03T18:10:42.213Z,11.65
2017-06-03T18:13:09.941Z,10.30
2017-06-03T18:15:37.279Z,11.12
2017-06-03T18:18:03.723Z,10.85
2017-06-03T18:20:30.388Z,10.23
2017-06-03T18:22:57.108Z,10.43
2017-06-03T18:25:23.954Z,11.70
2017-06-03T18:27:50.677Z,11.30
2017-06-03T18:30:17.237Z,10.93
2017-06-03T18:32:44.205Z,10.70
2017-06-03T18:35:11.169Z,10.57
2017-06-03T18:37:37.729Z,10.20
2017-06-03T18:40:04.240Z,10.40
2017-06-03T18:42:30.952Z,10.73
2017-06-03T18:44:57.508Z,10.80
2017-06-03T18:47:24.170Z,10.82
2017-06-03T18:49:50.674Z,11.07
2017-06-03T18:52:17.283Z,10.40
2017-06-03T18:54:43.741Z,10.90
2017-06-03T18:57:10.241Z,10.40
2017-06-03T18:59:36.855Z,10.33
2017-06-03T19:02:03.315Z,10.50
2017-06-03T19:04:29.780Z,10.75
2017-06-03T19:06:56.236Z,10.52
2017-06-03T19:09:23.092Z,11.60
2017-06-03T19:11:49.669Z,10.98
2017-06-03T19:14:16.170Z,10.80
2017-06-03T19:16:43.073Z,10.90
2017-06-03T19:19:09.632Z,10.67
2017-06-03T19:21:36.292Z,9.60
2017-06-03T19:24:02.849Z,10.02
2017-06-03T19:26:29.336Z,9.63
2017-06-03T19:28:55.866Z,9.10
2017-06-03T19:31:22.361Z,9.30
2017-06-03T19:33:49.026Z,7.78
2017-06-03T19:36:15.540Z,8.38
2017-06-03T19:38:42.019Z,7.28
2017-06-03T19:41:08.454Z,5.55
2017-06-03T19:43:35.114Z,6.80
2017-06-03T19:46:01.670Z,9.40
2017-06-03T19:48:28.144Z,10.00
2017-06-03T19:50:55.154Z,9.30
2017-06-03T19:53:22.242Z,8.50
2017-06-03T19:55:49.031Z,8.40
2017-06-03T19:58:15.587Z,8.10
2017-06-03T20:00:42.037Z,8.30
2017-06-03T20:03:09.255Z,8.13
2017-06-03T20:05:35.683Z,6.93
2017-06-03T20:08:02.121Z,7.60
2017-06-03T20:10:29.356Z,7.30
2017-06-03T20:12:55.858Z,6.70
2017-06-03T20:15:22.308Z,7.10
2017-06-03T20:17:49.484Z,6.90
2017-06-03T20:20:16.640Z,7.15
2017-06-03T20:22:43.889Z,6.60
2017-06-03T20:25:10.379Z,6.75
2017-06-03T20:27:37.542Z,6.80
2017-06-03T20:30:04.836Z,6.50
2017-06-03T20:32:31.335Z,6.22
2017-06-03T20:34:58.566Z,6.10
2017-06-03T20:37:25.032Z,6.22
2017-06-03T20:39:51.582Z,5.90
2017-06-03T20:42:18.035Z,6.40
2017-06-03T20:44:44.479Z,7.20
2017-06-03T20:47:11.664Z,7.05
2017-06-03T20:49:38.115Z,7.28
2017-06-03T20:52:05.294Z,8.00
2017-06-03T20:54:31.748Z,7.47
2017-06-03T20:56:58.615Z,8.10
2017-06-03T20:59:25.071Z,8.05
2017-06-03T21:01:51.629Z,7.60
2017-06-03T21:04:18.103Z,7.95
2017-06-03T21:06:44.644Z,8.55
2017-06-03T21:09:11.207Z,11.77
2017-06-03T21:11:37.969Z,15.87
2017-06-03T21:14:04.428Z,10.90
2017-06-03T21:16:31.244Z,9.77
2017-06-03T21:18:57.696Z,9.07
2017-06-03T21:21:24.166Z,9.30
2017-06-03T21:23:50.639Z,9.40
2017-06-03T21:26:17.809Z,10.00
2017-06-03T21:28:44.997Z,9.10
2017-06-03T21:31:11.504Z,8.70
2017-06-03T21:33:38.013Z,9.15
2017-06-03T21:36:04.506Z,9.23
2017-06-03T21:38:30.962Z,8.90
2017-06-03T21:40:57.485Z,9.55
2017-06-03T21:43:24.144Z,9.60
2017-06-03T21:45:50.563Z,9.50
2017-06-03T21:48:17.021Z,10.27
2017-06-03T21:50:43.441Z,10.77
2017-06-03T21:53:09.895Z,9.95
2017-06-03T21:55:36.401Z,10.00
2017-06-03T21:58:03.628Z,10.55
2017-06-03T22:00:30.156Z,10.50
2017-06-03T22:02:56.588Z,10.70
2017-06-03T22:05:23.038Z,10.55
2017-06-03T22:07:49.479Z,10.48
2017-06-03T22:10:15.915Z,10.60
2017-06-03T22:12:42.357Z,10.57
2017-06-03T22:15:08.894Z,10.60
2017-06-03T22:17:35.348Z,10.27
2017-06-03T22:20:01.960Z,10.55
2017-06-03T22:22:28.393Z,11.20
2017-06-03T22:24:54.814Z,10.90
2017-06-03T22:27:21.993Z,10.25
2017-06-03T22:29:48.872Z,10.60
2017-06-03T22:32:15.419Z,10.73
2017-06-03T22:34:41.846Z,10.70
2017-06-03T22:37:08.327Z,10.48
2017-06-03T22:39:34.758Z,11.20
2017-06-03T22:42:01.178Z,10.85
2017-06-03T22:44:27.595Z,11.20
2017-06-03T22:46:54.010Z,10.75
2017-06-03T22:49:20.463Z,11.15
2017-06-03T22:51:46.960Z,11.20
2017-06-03T22:54:13.419Z,10.88
2017-06-03T22:56:39.873Z,11.05
2017-06-03T22:59:06.308Z,10.70
2017-06-03T23:01:32.890Z,10.65
2017-06-03T23:03:59.328Z,10.35
2017-06-03T23:06:26.522Z,11.10
2017-06-03T23:08:53.017Z,10.77
2017-06-03T23:11:19.907Z,10.38
2017-06-03T23:13:46.343Z,9.70
2017-06-03T23:16:12.753Z,9.90
2017-06-03T23:18:39.273Z,10.07
2017-06-03T23:21:05.713Z,9.82
2017-06-03T23:23:32.141Z,9.40
2017-06-03T23:25:58.678Z,9.68
2017-06-03T23:28:25.123Z,9.95
2017-06-03T23:30:52.518Z,10.15
2017-06-03T23:33:18.998Z,10.50
2017-06-03T23:35:46.049Z,9.90
2017-06-03T23:38:12.456Z,10.13
2017-06-03T23:40:38.887Z,10.05
2017-06-03T23:43:05.322Z,10.15
2017-06-03T23:45:31.742Z,10.35
2017-06-03T23:47:58.917Z,10.27
2017-06-03T23:50:26.070Z,10.70
2017-06-03T23:52:53.148Z,10.40
2017-06-03T23:55:22.440Z,10.48
2017-06-03T23:57:48.882Z,10.93
